TFM - Tactical Decision Aid
ID: Runway Winds: CIG/VIS Threshold:

KATL - Atlanta/Hartsfield I, GA, US

Updated at: 0246 UTC 12 May 2021
Latest TAF at: 0209 UTC 12 May 2021

TAF Board

Time0152Z 12/03Z 12/04Z 12/05Z 12/06Z 12/07Z 12/08Z 12/09Z 12/10Z 12/11Z 12/12Z 12/13Z 12/14Z 12/15Z>>
Type OBS PRVL PRVL PRVL PRVL PRVL PRVL PRVL PRVL PRVL PRVL PRVL PRVL PRVL
VIS 10 >6 >6 >6 6 6 6 4 4 3 3 3 3 4
CIG 150 35 35 35 15 15 15 7 7 7 7 7 7 7
Cover BKN OVC OVC OVC OVC OVC OVC OVC OVC OVC OVC OVC OVC OVC
FltCat VFR VFR VFR VFR MVFR MVFR MVFR IFR IFR IFR IFR IFR IFR IFR
WX -- VCSH VCSH VCSH -SHRA BR -SHRA BR -SHRA BR SHRA BR SHRA BR SHRA BR SHRA BR SHRA BR SHRA BR -DZ BR
WDir 330 10 10 10 20 20 20 30 30 40 40 40 40 60
WSpd 7 4 4 4 5 5 5 5 5 7 7 7 7 11
WGst -- -- -- -- -- -- -- -- -- -- -- -- -- 18

TDA Impact Legend

  None Marginal Slight Moderate High
Visibility (sm) >5 3≤X≤5 1≤X<3 0.5≤X<1 <0.5
Ceiling (100 ft) >30 10≤X≤30 4≤X<10 2≤X<4 <2
Wind Speed (kt) <15 15≤X<25 25≤X<30 ≥30
Wind Gust (kt) <15 15≤X<25 25≤X<35 ≥35
Weather No Wx Reported VCTS -TS,-FZRA TS,FZRA +TS,+FZRA
TAF
KATL 120209Z 1202/1306 34008KT P6SM FEW045 BKN080
  FM120300 01004KT P6SM VCSH SCT025 BKN035 OVC060
  FM120600 02005KT 6SM -SHRA BR OVC015
  FM120900 03005KT 4SM SHRA BR OVC007
  FM121100 04007KT 3SM SHRA BR SCT005 OVC007
  FM121500 06011G18KT 4SM -DZ BR OVC007
  FM122000 07012G20KT 4SM BR SCT008 OVC012


METAR
KATL 120152Z 33007KT 10SM FEW045 BKN150 BKN250 20/15 A3009 RMK AO2 SLP182 T02000150
KATL 120052Z 33006KT 10SM FEW020 SCT045 BKN150 BKN250 21/15 A3006 RMK AO2 SLP174 T02060150
KATL 112352Z 35006KT 10SM SCT046 BKN140 BKN200 OVC250 22/16 A3004 RMK AO2 SLP166 T02170161 10256 20217 55001

Radar Display
Forecast Discussion